sensor_id;sensor_type;location;lat;lon;timestamp;pressure;altitude;pressure_sealevel;temperature;humidity
79376;BME280;68846;53.150;18.136;2023-04-03T00:00:52;102231.48;;;1.16;63.59
79376;BME280;68846;53.150;18.136;2023-04-03T00:03:20;102228.88;;;1.16;63.77
79376;BME280;68846;53.150;18.136;2023-04-03T00:05:47;102228.28;;;1.17;63.63
79376;BME280;68846;53.150;18.136;2023-04-03T00:08:14;102225.80;;;1.21;63.65
79376;BME280;68846;53.150;18.136;2023-04-03T00:10:42;102225.77;;;1.26;63.72
79376;BME280;68846;53.150;18.136;2023-04-03T00:13:09;102220.33;;;1.30;63.16
79376;BME280;68846;53.150;18.136;2023-04-03T00:15:36;102221.44;;;1.30;63.37
79376;BME280;68846;53.150;18.136;2023-04-03T00:18:04;102222.00;;;1.31;63.22
79376;BME280;68846;53.150;18.136;2023-04-03T00:20:32;102222.84;;;1.28;63.33
79376;BME280;68846;53.150;18.136;2023-04-03T00:23:01;102222.61;;;1.25;63.46
79376;BME280;68846;53.150;18.136;2023-04-03T00:25:28;102219.45;;;1.22;63.37
79376;BME280;68846;53.150;18.136;2023-04-03T00:27:55;102216.80;;;1.19;63.32
79376;BME280;68846;53.150;18.136;2023-04-03T00:30:22;102217.13;;;1.17;63.43
79376;BME280;68846;53.150;18.136;2023-04-03T00:32:51;102208.77;;;1.09;63.40
79376;BME280;68846;53.150;18.136;2023-04-03T00:35:20;102218.27;;;1.13;63.35
79376;BME280;68846;53.150;18.136;2023-04-03T00:37:47;102219.82;;;1.11;63.36
79376;BME280;68846;53.150;18.136;2023-04-03T00:40:15;102205.34;;;1.00;63.54
79376;BME280;68846;53.150;18.136;2023-04-03T00:42:43;102217.31;;;1.05;63.38
79376;BME280;68846;53.150;18.136;2023-04-03T00:48:03;102219.50;;;0.95;63.45
79376;BME280;68846;53.150;18.136;2023-04-03T00:50:35;102215.94;;;0.93;63.69
79376;BME280;68846;53.150;18.136;2023-04-03T00:53:05;102218.35;;;0.89;63.65
79376;BME280;68846;53.150;18.136;2023-04-03T00:55:34;102218.38;;;0.87;63.77
79376;BME280;68846;53.150;18.136;2023-04-03T00:58:02;102223.58;;;0.84;63.67
79376;BME280;68846;53.150;18.136;2023-04-03T01:00:29;102222.17;;;0.82;63.89
79376;BME280;68846;53.150;18.136;2023-04-03T01:02:57;102210.65;;;0.71;64.08
79376;BME280;68846;53.150;18.136;2023-04-03T01:05:25;102220.65;;;0.75;64.05
79376;BME280;68846;53.150;18.136;2023-04-03T01:07:52;102204.98;;;0.67;64.05
79376;BME280;68846;53.150;18.136;2023-04-03T01:10:20;102218.44;;;0.75;64.03
79376;BME280;68846;53.150;18.136;2023-04-03T01:12:49;102220.05;;;0.79;64.16
79376;BME280;68846;53.150;18.136;2023-04-03T01:15:25;102218.77;;;0.83;64.09
79376;BME280;68846;53.150;18.136;2023-04-03T01:17:57;102218.77;;;0.85;63.94
79376;BME280;68846;53.150;18.136;2023-04-03T01:25:50;102225.11;;;0.82;64.23
79376;BME280;68846;53.150;18.136;2023-04-03T01:28:35;102222.91;;;0.78;64.19
79376;BME280;68846;53.150;18.136;2023-04-03T01:31:56;102223.02;;;0.77;64.19
79376;BME280;68846;53.150;18.136;2023-04-03T01:34:14;102225.85;;;0.75;64.41
79376;BME280;68846;53.150;18.136;2023-04-03T01:36:41;102229.27;;;0.72;64.45
79376;BME280;68846;53.150;18.136;2023-04-03T01:39:08;102227.06;;;0.71;64.26
79376;BME280;68846;53.150;18.136;2023-04-03T01:41:35;102229.09;;;0.67;64.46
79376;BME280;68846;53.150;18.136;2023-04-03T01:44:09;102230.84;;;0.63;64.64
79376;BME280;68846;53.150;18.136;2023-04-03T01:46:37;102233.19;;;0.58;64.79
79376;BME280;68846;53.150;18.136;2023-04-03T01:49:04;102236.27;;;0.55;64.68
79376;BME280;68846;53.150;18.136;2023-04-03T01:51:31;102237.05;;;0.53;64.85
79376;BME280;68846;53.150;18.136;2023-04-03T01:54:00;102236.46;;;0.50;65.05
79376;BME280;68846;53.150;18.136;2023-04-03T01:56:28;102237.29;;;0.50;65.25
79376;BME280;68846;53.150;18.136;2023-04-03T01:58:55;102237.61;;;0.47;65.00
79376;BME280;68846;53.150;18.136;2023-04-03T02:01:22;102233.27;;;0.47;65.09
79376;BME280;68846;53.150;18.136;2023-04-03T02:03:49;102237.75;;;0.49;65.32
79376;BME280;68846;53.150;18.136;2023-04-03T02:06:17;102236.05;;;0.52;65.11
79376;BME280;68846;53.150;18.136;2023-04-03T02:08:44;102242.27;;;0.59;65.05
79376;BME280;68846;53.150;18.136;2023-04-03T02:11:11;102239.80;;;0.62;65.02
79376;BME280;68846;53.150;18.136;2023-04-03T02:13:38;102239.14;;;0.63;64.85
79376;BME280;68846;53.150;18.136;2023-04-03T02:16:09;102242.46;;;0.63;65.02
79376;BME280;68846;53.150;18.136;2023-04-03T02:18:38;102243.95;;;0.65;64.97
79376;BME280;68846;53.150;18.136;2023-04-03T02:21:05;102243.06;;;0.65;64.89
79376;BME280;68846;53.150;18.136;2023-04-03T02:23:32;102247.95;;;0.65;65.21
79376;BME280;68846;53.150;18.136;2023-04-03T02:26:08;102245.40;;;0.63;65.11
79376;BME280;68846;53.150;18.136;2023-04-03T02:28:36;102246.80;;;0.61;65.23
79376;BME280;68846;53.150;18.136;2023-04-03T02:31:04;102247.56;;;0.57;65.17
79376;BME280;68846;53.150;18.136;2023-04-03T02:33:31;102246.22;;;0.53;65.36
79376;BME280;68846;53.150;18.136;2023-04-03T02:35:59;102237.36;;;0.44;65.26
79376;BME280;68846;53.150;18.136;2023-04-03T02:38:26;102250.88;;;0.49;65.48
79376;BME280;68846;53.150;18.136;2023-04-03T02:40:53;102249.34;;;0.47;65.55
79376;BME280;68846;53.150;18.136;2023-04-03T02:43:25;102255.15;;;0.45;65.68
79376;BME280;68846;53.150;18.136;2023-04-03T02:45:53;102254.40;;;0.45;65.69
79376;BME280;68846;53.150;18.136;2023-04-03T02:48:20;102255.23;;;0.44;65.76
79376;BME280;68846;53.150;18.136;2023-04-03T02:50:48;102260.24;;;0.42;65.96
79376;BME280;68846;53.150;18.136;2023-04-03T02:53:15;102245.10;;;0.32;65.85
79376;BME280;68846;53.150;18.136;2023-04-03T02:55:42;102258.13;;;0.39;66.09
79376;BME280;68846;53.150;18.136;2023-04-03T02:58:10;102247.02;;;0.34;65.97
79376;BME280;68846;53.150;18.136;2023-04-03T03:00:37;102259.06;;;0.44;65.85
79376;BME280;68846;53.150;18.136;2023-04-03T03:03:04;102263.19;;;0.49;66.02
79376;BME280;68846;53.150;18.136;2023-04-03T03:05:31;102249.73;;;0.47;65.97
79376;BME280;68846;53.150;18.136;2023-04-03T03:07:58;102263.08;;;0.54;66.02
79376;BME280;68846;53.150;18.136;2023-04-03T03:10:25;102269.29;;;0.58;66.01
79376;BME280;68846;53.150;18.136;2023-04-03T03:12:52;102266.94;;;0.59;65.94
79376;BME280;68846;53.150;18.136;2023-04-03T03:15:19;102269.29;;;0.58;65.85
79376;BME280;68846;53.150;18.136;2023-04-03T03:17:46;102271.95;;;0.56;65.94
79376;BME280;68846;53.150;18.136;2023-04-03T03:20:13;102277.76;;;0.56;65.93
79376;BME280;68846;53.150;18.136;2023-04-03T03:22:41;102276.98;;;0.54;65.95
79376;BME280;68846;53.150;18.136;2023-04-03T03:25:09;102281.48;;;0.54;66.06
79376;BME280;68846;53.150;18.136;2023-04-03T03:27:37;102279.42;;;0.52;65.96
79376;BME280;68846;53.150;18.136;2023-04-03T03:30:05;102277.94;;;0.51;65.94
79376;BME280;68846;53.150;18.136;2023-04-03T03:32:33;102279.64;;;0.48;65.81
79376;BME280;68846;53.150;18.136;2023-04-03T03:35:00;102276.56;;;0.44;66.04
79376;BME280;68846;53.150;18.136;2023-04-03T03:37:26;102286.06;;;0.40;66.06
79376;BME280;68846;53.150;18.136;2023-04-03T03:39:54;102283.44;;;0.37;66.17
79376;BME280;68846;53.150;18.136;2023-04-03T03:42:21;102286.19;;;0.35;66.16
79376;BME280;68846;53.150;18.136;2023-04-03T03:44:49;102289.45;;;0.32;66.34
79376;BME280;68846;53.150;18.136;2023-04-03T03:47:16;102290.85;;;0.28;66.15
79376;BME280;68846;53.150;18.136;2023-04-03T03:49:43;102295.73;;;0.24;66.54
79376;BME280;68846;53.150;18.136;2023-04-03T03:52:10;102299.19;;;0.21;66.34
79376;BME280;68846;53.150;18.136;2023-04-03T03:54:37;102301.23;;;0.23;66.51
79376;BME280;68846;53.150;18.136;2023-04-03T03:57:05;102304.04;;;0.28;66.16
79376;BME280;68846;53.150;18.136;2023-04-03T03:59:32;102306.84;;;0.33;66.13
79376;BME280;68846;53.150;18.136;2023-04-03T04:02:00;102310.42;;;0.36;66.14
79376;BME280;68846;53.150;18.136;2023-04-03T04:04:27;102309.96;;;0.37;66.11
79376;BME280;68846;53.150;18.136;2023-04-03T04:06:55;102311.04;;;0.40;66.06
79376;BME280;68846;53.150;18.136;2023-04-03T04:09:22;102311.91;;;0.42;66.24
79376;BME280;68846;53.150;18.136;2023-04-03T04:11:49;102312.11;;;0.40;65.98
79376;BME280;68846;53.150;18.136;2023-04-03T04:14:41;102315.16;;;0.35;65.95
79376;BME280;68846;53.150;18.136;2023-04-03T04:17:08;102319.48;;;0.30;66.03
79376;BME280;68846;53.150;18.136;2023-04-03T04:19:36;102318.23;;;0.30;66.08
79376;BME280;68846;53.150;18.136;2023-04-03T04:22:03;102324.27;;;0.30;65.97
79376;BME280;68846;53.150;18.136;2023-04-03T04:24:31;102322.15;;;0.29;66.23
79376;BME280;68846;53.150;18.136;2023-04-03T04:26:59;102322.86;;;0.29;66.15
79376;BME280;68846;53.150;18.136;2023-04-03T04:29:26;102325.12;;;0.27;66.09
79376;BME280;68846;53.150;18.136;2023-04-03T04:31:53;102320.45;;;0.24;66.19
79376;BME280;68846;53.150;18.136;2023-04-03T04:34:21;102325.54;;;0.24;66.12
79376;BME280;68846;53.150;18.136;2023-04-03T04:36:48;102332.77;;;0.23;66.24
79376;BME280;68846;53.150;18.136;2023-04-03T04:39:16;102331.85;;;0.20;66.18
79376;BME280;68846;53.150;18.136;2023-04-03T04:41:43;102334.52;;;0.17;66.15
79376;BME280;68846;53.150;18.136;2023-04-03T04:44:10;102334.14;;;0.14;66.15
79376;BME280;68846;53.150;18.136;2023-04-03T04:46:37;102319.22;;;0.07;66.37
79376;BME280;68846;53.150;18.136;2023-04-03T04:49:04;102337.21;;;0.15;66.28
79376;BME280;68846;53.150;18.136;2023-04-03T04:51:32;102340.11;;;0.19;66.30
79376;BME280;68846;53.150;18.136;2023-04-03T04:53:59;102344.38;;;0.23;66.15
79376;BME280;68846;53.150;18.136;2023-04-03T04:56:26;102345.30;;;0.28;66.22
79376;BME280;68846;53.150;18.136;2023-04-03T04:58:55;102344.92;;;0.36;65.90
79376;BME280;68846;53.150;18.136;2023-04-03T05:01:22;102346.95;;;0.44;65.80
79376;BME280;68846;53.150;18.136;2023-04-03T05:03:57;102351.23;;;0.53;65.53
79376;BME280;68846;53.150;18.136;2023-04-03T05:06:25;102352.80;;;0.58;65.68
79376;BME280;68846;53.150;18.136;2023-04-03T05:08:53;102353.66;;;0.60;65.53
79376;BME280;68846;53.150;18.136;2023-04-03T05:11:20;102332.11;;;0.47;65.33
79376;BME280;68846;53.150;18.136;2023-04-03T05:13:47;102357.16;;;0.65;64.91
79376;BME280;68846;53.150;18.136;2023-04-03T05:16:14;102359.95;;;0.65;64.90
79376;BME280;68846;53.150;18.136;2023-04-03T05:18:42;102359.96;;;0.65;65.21
79376;BME280;68846;53.150;18.136;2023-04-03T05:21:11;102349.48;;;0.57;65.05
79376;BME280;68846;53.150;18.136;2023-04-03T05:23:38;102366.06;;;0.65;64.87
79376;BME280;68846;53.150;18.136;2023-04-03T05:26:06;102360.02;;;0.68;64.79
79376;BME280;68846;53.150;18.136;2023-04-03T05:28:34;102361.84;;;0.69;64.71
79376;BME280;68846;53.150;18.136;2023-04-03T05:31:02;102347.38;;;0.61;64.65
79376;BME280;68846;53.150;18.136;2023-04-03T05:33:33;102361.79;;;0.66;64.66
79376;BME280;68846;53.150;18.136;2023-04-03T05:36:04;102358.15;;;0.66;64.72
79376;BME280;68846;53.150;18.136;2023-04-03T05:38:58;102365.10;;;0.64;64.50
79376;BME280;68846;53.150;18.136;2023-04-03T05:41:26;102353.16;;;0.60;64.78
79376;BME280;68846;53.150;18.136;2023-04-03T05:43:53;102363.36;;;0.73;64.29
79376;BME280;68846;53.150;18.136;2023-04-03T05:46:20;102362.29;;;0.79;64.42
79376;BME280;68846;53.150;18.136;2023-04-03T05:48:51;102363.29;;;0.85;64.16
79376;BME280;68846;53.150;18.136;2023-04-03T05:51:25;102362.98;;;0.91;64.11
79376;BME280;68846;53.150;18.136;2023-04-03T05:54:01;102361.09;;;0.97;64.11
79376;BME280;68846;53.150;18.136;2023-04-03T05:56:30;102349.86;;;0.96;63.95
79376;BME280;68846;53.150;18.136;2023-04-03T05:58:57;102363.15;;;1.09;63.49
79376;BME280;68846;53.150;18.136;2023-04-03T06:01:25;102366.97;;;1.16;63.58
79376;BME280;68846;53.150;18.136;2023-04-03T06:03:52;102362.54;;;1.21;62.92
79376;BME280;68846;53.150;18.136;2023-04-03T06:06:19;102365.03;;;1.27;63.12
79376;BME280;68846;53.150;18.136;2023-04-03T06:08:46;102369.69;;;1.36;62.95
79376;BME280;68846;53.150;18.136;2023-04-03T06:11:14;102370.00;;;1.42;62.75
79376;BME280;68846;53.150;18.136;2023-04-03T06:13:41;102372.29;;;1.49;62.48
79376;BME280;68846;53.150;18.136;2023-04-03T06:16:10;102371.64;;;1.59;62.49
79376;BME280;68846;53.150;18.136;2023-04-03T06:18:39;102372.52;;;1.69;62.32
79376;BME280;68846;53.150;18.136;2023-04-03T06:21:08;102375.88;;;1.77;62.19
79376;BME280;68846;53.150;18.136;2023-04-03T06:23:35;102380.02;;;1.84;62.02
79376;BME280;68846;53.150;18.136;2023-04-03T06:26:02;102381.29;;;1.89;61.61
79376;BME280;68846;53.150;18.136;2023-04-03T06:28:29;102374.59;;;1.88;61.54
79376;BME280;68846;53.150;18.136;2023-04-03T06:30:56;102386.56;;;1.97;61.55
79376;BME280;68846;53.150;18.136;2023-04-03T06:33:23;102390.11;;;1.93;61.32
79376;BME280;68846;53.150;18.136;2023-04-03T06:35:55;102393.42;;;1.98;61.03
79376;BME280;68846;53.150;18.136;2023-04-03T06:38:22;102394.53;;;2.04;60.61
79376;BME280;68846;53.150;18.136;2023-04-03T06:40:49;102394.89;;;2.04;60.00
79376;BME280;68846;53.150;18.136;2023-04-03T06:43:16;102393.73;;;1.98;59.94
79376;BME280;68846;53.150;18.136;2023-04-03T06:45:43;102395.12;;;1.90;59.76
79376;BME280;68846;53.150;18.136;2023-04-03T06:48:10;102396.48;;;1.85;60.47
79376;BME280;68846;53.150;18.136;2023-04-03T06:50:38;102397.36;;;1.85;60.44
79376;BME280;68846;53.150;18.136;2023-04-03T06:53:05;102399.57;;;1.87;60.00
79376;BME280;68846;53.150;18.136;2023-04-03T06:55:33;102403.30;;;1.86;59.88
79376;BME280;68846;53.150;18.136;2023-04-03T06:58:00;102408.41;;;1.87;59.64
79376;BME280;68846;53.150;18.136;2023-04-03T07:00:28;102411.62;;;1.85;59.92
79376;BME280;68846;53.150;18.136;2023-04-03T07:02:54;102411.52;;;1.84;59.30
79376;BME280;68846;53.150;18.136;2023-04-03T07:05:24;102418.79;;;1.91;59.48
79376;BME280;68846;53.150;18.136;2023-04-03T07:07:52;102423.48;;;2.05;59.71
79376;BME280;68846;53.150;18.136;2023-04-03T07:10:19;102418.97;;;2.20;59.01
79376;BME280;68846;53.150;18.136;2023-04-03T07:12:46;102424.08;;;2.35;58.81
79376;BME280;68846;53.150;18.136;2023-04-03T07:15:14;102428.80;;;2.53;58.94
79376;BME280;68846;53.150;18.136;2023-04-03T07:17:41;102416.69;;;2.61;58.49
79376;BME280;68846;53.150;18.136;2023-04-03T07:20:09;102424.09;;;2.80;57.46
79376;BME280;68846;53.150;18.136;2023-04-03T07:22:37;102430.08;;;2.93;57.73
79376;BME280;68846;53.150;18.136;2023-04-03T07:25:05;102433.16;;;3.05;55.57
79376;BME280;68846;53.150;18.136;2023-04-03T07:27:34;102441.98;;;3.12;55.11
79376;BME280;68846;53.150;18.136;2023-04-03T07:30:01;102434.36;;;3.17;53.04
79376;BME280;68846;53.150;18.136;2023-04-03T07:32:28;102436.00;;;3.26;53.08
79376;BME280;68846;53.150;18.136;2023-04-03T07:34:56;102438.40;;;3.38;52.67
79376;BME280;68846;53.150;18.136;2023-04-03T07:37:23;102441.48;;;3.48;51.76
79376;BME280;68846;53.150;18.136;2023-04-03T07:39:50;102435.32;;;3.54;50.84
79376;BME280;68846;53.150;18.136;2023-04-03T07:42:17;102439.92;;;3.61;50.58
79376;BME280;68846;53.150;18.136;2023-04-03T07:44:44;102448.73;;;3.65;50.15
79376;BME280;68846;53.150;18.136;2023-04-03T07:47:11;102448.02;;;3.64;48.40
79376;BME280;68846;53.150;18.136;2023-04-03T07:49:40;102447.55;;;3.60;50.16
79376;BME280;68846;53.150;18.136;2023-04-03T07:52:07;102450.73;;;3.63;50.30
79376;BME280;68846;53.150;18.136;2023-04-03T07:54:35;102451.64;;;3.66;49.26
79376;BME280;68846;53.150;18.136;2023-04-03T07:57:02;102439.89;;;3.60;48.03
79376;BME280;68846;53.150;18.136;2023-04-03T07:59:29;102456.20;;;3.67;48.36
79376;BME280;68846;53.150;18.136;2023-04-03T08:01:56;102451.33;;;3.62;46.64
79376;BME280;68846;53.150;18.136;2023-04-03T08:04:23;102449.81;;;3.55;46.58
79376;BME280;68846;53.150;18.136;2023-04-03T08:06:51;102447.70;;;3.49;48.11
79376;BME280;68846;53.150;18.136;2023-04-03T08:09:19;102448.05;;;3.49;47.74
79376;BME280;68846;53.150;18.136;2023-04-03T08:11:46;102450.20;;;3.53;47.68
79376;BME280;68846;53.150;18.136;2023-04-03T08:14:13;102453.25;;;3.57;46.99
79376;BME280;68846;53.150;18.136;2023-04-03T08:16:46;102454.02;;;3.55;46.89
79376;BME280;68846;53.150;18.136;2023-04-03T08:19:15;102454.45;;;3.56;47.99
79376;BME280;68846;53.150;18.136;2023-04-03T08:21:44;102452.20;;;3.59;47.29
79376;BME280;68846;53.150;18.136;2023-04-03T08:24:13;102454.68;;;3.60;44.75
79376;BME280;68846;53.150;18.136;2023-04-03T08:26:40;102456.21;;;3.52;45.42
79376;BME280;68846;53.150;18.136;2023-04-03T08:29:07;102453.09;;;3.52;46.02
79376;BME280;68846;53.150;18.136;2023-04-03T08:31:34;102439.45;;;3.48;46.43
79376;BME280;68846;53.150;18.136;2023-04-03T08:34:01;102450.77;;;3.56;44.36
79376;BME280;68846;53.150;18.136;2023-04-03T08:36:29;102455.83;;;3.56;44.62
79376;BME280;68846;53.150;18.136;2023-04-03T08:38:57;102459.61;;;3.56;43.39
79376;BME280;68846;53.150;18.136;2023-04-03T08:41:34;102458.13;;;3.52;43.74
79376;BME280;68846;53.150;18.136;2023-04-03T08:49:56;102462.23;;;3.69;45.56
79376;BME280;68846;53.150;18.136;2023-04-03T08:52:41;102469.73;;;3.74;45.42
79376;BME280;68846;53.150;18.136;2023-04-03T08:55:33;102446.08;;;3.61;45.56
79376;BME280;68846;53.150;18.136;2023-04-03T08:58:04;102468.11;;;3.73;46.27
79376;BME280;68846;53.150;18.136;2023-04-03T09:00:44;102468.45;;;3.73;45.72
79376;BME280;68846;53.150;18.136;2023-04-03T09:03:14;102466.86;;;3.78;45.99
79376;BME280;68846;53.150;18.136;2023-04-03T09:10:42;102459.02;;;4.18;45.12
79376;BME280;68846;53.150;18.136;2023-04-03T09:13:28;102463.01;;;4.30;44.80
79376;BME280;68846;53.150;18.136;2023-04-03T09:15:58;102464.13;;;4.43;45.33
79376;BME280;68846;53.150;18.136;2023-04-03T09:18:35;102467.27;;;4.50;45.06
79376;BME280;68846;53.150;18.136;2023-04-03T09:21:27;102472.77;;;4.58;44.55
79376;BME280;68846;53.150;18.136;2023-04-03T09:23:59;102466.06;;;4.70;44.49
79376;BME280;68846;53.150;18.136;2023-04-03T09:26:56;102453.73;;;4.82;44.90
79376;BME280;68846;53.150;18.136;2023-04-03T09:29:25;102461.59;;;4.99;43.43
79376;BME280;68846;53.150;18.136;2023-04-03T09:32:26;102457.96;;;5.09;43.86
79376;BME280;68846;53.150;18.136;2023-04-03T09:35:24;102450.40;;;5.25;44.15
79376;BME280;68846;53.150;18.136;2023-04-03T09:38:38;102451.27;;;5.37;42.80
79376;BME280;68846;53.150;18.136;2023-04-03T09:40:49;102445.23;;;5.44;43.47
79376;BME280;68846;53.150;18.136;2023-04-03T09:43:27;102451.91;;;5.53;43.13
79376;BME280;68846;53.150;18.136;2023-04-03T09:45:55;102448.79;;;5.56;42.36
79376;BME280;68846;53.150;18.136;2023-04-03T09:48:25;102453.41;;;5.49;42.91
79376;BME280;68846;53.150;18.136;2023-04-03T09:50:57;102458.08;;;5.36;42.71
79376;BME280;68846;53.150;18.136;2023-04-03T09:56:27;102455.48;;;5.17;43.42
79376;BME280;68846;53.150;18.136;2023-04-03T10:01:33;102450.85;;;4.95;42.88
79376;BME280;68846;53.150;18.136;2023-04-03T10:04:14;102450.77;;;4.85;42.84
79376;BME280;68846;53.150;18.136;2023-04-03T10:09:32;102454.48;;;4.83;43.33
79376;BME280;68846;53.150;18.136;2023-04-03T10:12:09;102451.99;;;4.82;43.38
79376;BME280;68846;53.150;18.136;2023-04-03T10:14:42;102445.78;;;4.87;44.05
79376;BME280;68846;53.150;18.136;2023-04-03T10:23:15;102449.23;;;5.06;43.24
79376;BME280;68846;53.150;18.136;2023-04-03T10:25:51;102449.45;;;5.12;43.61
79376;BME280;68846;53.150;18.136;2023-04-03T10:28:33;102438.86;;;5.16;43.05
79376;BME280;68846;53.150;18.136;2023-04-03T10:34:14;102451.17;;;5.32;41.84
79376;BME280;68846;53.150;18.136;2023-04-03T10:37:05;102455.43;;;5.27;41.57
79376;BME280;68846;53.150;18.136;2023-04-03T10:58:32;102444.63;;;5.78;41.19
79376;BME280;68846;53.150;18.136;2023-04-03T11:01:05;102437.30;;;5.84;41.62
79376;BME280;68846;53.150;18.136;2023-04-03T11:03:49;102439.30;;;5.88;41.10
79376;BME280;68846;53.150;18.136;2023-04-03T11:06:19;102441.86;;;5.93;41.30
79376;BME280;68846;53.150;18.136;2023-04-03T11:09:03;102445.61;;;5.97;40.84
79376;BME280;68846;53.150;18.136;2023-04-03T11:11:36;102441.92;;;6.00;41.04
79376;BME280;68846;53.150;18.136;2023-04-03T11:14:10;102434.61;;;6.06;40.91
79376;BME280;68846;53.150;18.136;2023-04-03T11:16:46;102432.85;;;6.09;40.96
79376;BME280;68846;53.150;18.136;2023-04-03T11:19:20;102428.52;;;6.09;40.17
79376;BME280;68846;53.150;18.136;2023-04-03T11:22:03;102427.20;;;6.21;40.47
79376;BME280;68846;53.150;18.136;2023-04-03T11:24:33;102429.87;;;6.28;40.35
79376;BME280;68846;53.150;18.136;2023-04-03T11:27:04;102430.94;;;6.25;39.62
79376;BME280;68846;53.150;18.136;2023-04-03T11:29:35;102430.42;;;6.19;39.57
79376;BME280;68846;53.150;18.136;2023-04-03T11:32:23;102423.48;;;6.17;38.26
79376;BME280;68846;53.150;18.136;2023-04-03T11:34:56;102399.13;;;6.13;39.25
79376;BME280;68846;53.150;18.136;2023-04-03T11:37:38;102411.11;;;6.30;39.87
79376;BME280;68846;53.150;18.136;2023-04-03T11:43:18;102415.73;;;6.60;39.49
79376;BME280;68846;53.150;18.136;2023-04-03T11:45:37;102409.95;;;6.73;39.21
79376;BME280;68846;53.150;18.136;2023-04-03T11:48:41;102410.59;;;6.81;39.54
79376;BME280;68846;53.150;18.136;2023-04-03T11:50:55;102415.48;;;6.84;38.73
79376;BME280;68846;53.150;18.136;2023-04-03T11:53:37;102412.84;;;6.81;39.56
79376;BME280;68846;53.150;18.136;2023-04-03T12:04:11;102403.73;;;6.61;38.95
79376;BME280;68846;53.150;18.136;2023-04-03T12:06:51;102406.92;;;6.72;38.31
79376;BME280;68846;53.150;18.136;2023-04-03T12:09:30;102396.62;;;6.82;37.88
79376;BME280;68846;53.150;18.136;2023-04-03T12:12:01;102397.94;;;6.84;38.88
79376;BME280;68846;53.150;18.136;2023-04-03T12:14:47;102405.46;;;6.81;39.26
79376;BME280;68846;53.150;18.136;2023-04-03T12:17:25;102388.52;;;6.65;38.90
79376;BME280;68846;53.150;18.136;2023-04-03T12:19:53;102396.68;;;6.60;38.75
79376;BME280;68846;53.150;18.136;2023-04-03T12:22:20;102401.55;;;6.50;38.84
79376;BME280;68846;53.150;18.136;2023-04-03T12:24:49;102398.81;;;6.42;38.13
79376;BME280;68846;53.150;18.136;2023-04-03T12:27:29;102394.63;;;6.39;38.07
79376;BME280;68846;53.150;18.136;2023-04-03T12:32:41;102383.78;;;6.84;37.71
79376;BME280;68846;53.150;18.136;2023-04-03T12:46:21;102393.73;;;6.52;38.27
79376;BME280;68846;53.150;18.136;2023-04-03T12:48:53;102388.14;;;6.45;38.28
79376;BME280;68846;53.150;18.136;2023-04-03T12:51:30;102382.72;;;6.61;37.57
79376;BME280;68846;53.150;18.136;2023-04-03T12:54:13;102379.36;;;6.77;37.76
79376;BME280;68846;53.150;18.136;2023-04-03T12:56:42;102377.23;;;6.93;38.06
79376;BME280;68846;53.150;18.136;2023-04-03T13:01:53;102381.33;;;7.24;36.37
79376;BME280;68846;53.150;18.136;2023-04-03T13:04:20;102377.89;;;7.29;36.15
79376;BME280;68846;53.150;18.136;2023-04-03T13:06:48;102375.47;;;7.20;36.18
79376;BME280;68846;53.150;18.136;2023-04-03T13:09:27;102380.76;;;7.13;37.18
79376;BME280;68846;53.150;18.136;2023-04-03T13:12:12;102378.95;;;7.15;37.05
79376;BME280;68846;53.150;18.136;2023-04-03T13:14:40;102377.61;;;7.27;36.22
79376;BME280;68846;53.150;18.136;2023-04-03T13:17:14;102376.23;;;7.31;36.58
79376;BME280;68846;53.150;18.136;2023-04-03T13:19:44;102379.11;;;7.40;36.96
79376;BME280;68846;53.150;18.136;2023-04-03T13:22:36;102377.95;;;7.48;37.54
79376;BME280;68846;53.150;18.136;2023-04-03T13:25:13;102368.18;;;7.38;36.72
79376;BME280;68846;53.150;18.136;2023-04-03T13:27:42;102377.08;;;7.27;36.48
79376;BME280;68846;53.150;18.136;2023-04-03T13:30:23;102372.77;;;7.08;36.93
79376;BME280;68846;53.150;18.136;2023-04-03T13:32:51;102374.39;;;7.03;37.53
79376;BME280;68846;53.150;18.136;2023-04-03T13:35:45;102372.10;;;7.54;37.34
79376;BME280;68846;53.150;18.136;2023-04-03T13:41:01;102359.52;;;8.68;35.92
79376;BME280;68846;53.150;18.136;2023-04-03T13:43:35;102365.34;;;8.49;36.45
79376;BME280;68846;53.150;18.136;2023-04-03T13:53:57;102385.86;;;7.48;38.89
79376;BME280;68846;53.150;18.136;2023-04-03T14:01:41;102362.19;;;9.80;36.30
79376;BME280;68846;53.150;18.136;2023-04-03T14:06:42;102361.52;;;11.80;34.15
79376;BME280;68846;53.150;18.136;2023-04-03T14:09:09;102364.63;;;11.32;33.43
79376;BME280;68846;53.150;18.136;2023-04-03T14:11:36;102356.53;;;10.45;32.59
79376;BME280;68846;53.150;18.136;2023-04-03T14:14:10;102357.23;;;9.60;33.91
79376;BME280;68846;53.150;18.136;2023-04-03T14:16:41;102357.73;;;9.31;33.93
79376;BME280;68846;53.150;18.136;2023-04-03T14:19:18;102348.23;;;9.27;34.42
79376;BME280;68846;53.150;18.136;2023-04-03T14:21:47;102357.41;;;8.60;35.47
79376;BME280;68846;53.150;18.136;2023-04-03T14:24:14;102360.69;;;8.11;35.96
79376;BME280;68846;53.150;18.136;2023-04-03T14:26:41;102367.54;;;7.60;36.61
79376;BME280;68846;53.150;18.136;2023-04-03T14:29:10;102371.06;;;7.26;37.19
79376;BME280;68846;53.150;18.136;2023-04-03T14:31:38;102369.39;;;7.07;37.62
79376;BME280;68846;53.150;18.136;2023-04-03T14:34:05;102363.08;;;8.40;36.37
79376;BME280;68846;53.150;18.136;2023-04-03T14:36:33;102352.37;;;10.43;33.73
79376;BME280;68846;53.150;18.136;2023-04-03T14:39:00;102343.53;;;11.80;32.05
79376;BME280;68846;53.150;18.136;2023-04-03T14:41:27;102349.60;;;11.99;31.57
79376;BME280;68846;53.150;18.136;2023-04-03T14:43:55;102351.90;;;13.20;29.38
79376;BME280;68846;53.150;18.136;2023-04-03T14:46:33;102351.17;;;14.51;28.07
79376;BME280;68846;53.150;18.136;2023-04-03T14:49:02;102348.67;;;15.60;26.01